createdAt,value
2019-06-08T00:02:16.775Z,1.20
2019-06-08T00:04:28.668Z,0.90
2019-06-08T00:06:50.557Z,0.90
2019-06-08T00:09:09.559Z,1.20
2019-06-08T00:11:24.063Z,0.70
2019-06-08T00:13:41.127Z,0.70
2019-06-08T00:15:52.040Z,0.90
2019-06-08T00:20:47.360Z,0.90
2019-06-08T00:23:13.747Z,0.80
2019-06-08T00:26:12.213Z,0.80
2019-06-08T00:28:36.478Z,0.80
2019-06-08T00:31:12.907Z,0.70
2019-06-08T00:33:29.334Z,0.70
2019-06-08T00:35:53.535Z,0.80
2019-06-08T00:38:11.124Z,0.83
2019-06-08T00:40:34.399Z,0.80
2019-06-08T00:43:15.114Z,0.87
2019-06-08T00:45:32.379Z,0.73
2019-06-08T00:47:52.810Z,0.80
2019-06-08T00:50:16.637Z,0.80
2019-06-08T00:52:27.460Z,0.80
2019-06-08T00:54:54.948Z,1.00
2019-06-08T00:57:21.767Z,0.80
2019-06-08T00:59:35.978Z,0.90
2019-06-08T01:01:54.094Z,0.80
2019-06-08T01:04:05.281Z,1.00
2019-06-08T01:06:18.863Z,1.63
2019-06-08T01:08:41.364Z,0.83
2019-06-08T01:11:13.793Z,0.90
2019-06-08T01:13:40.644Z,0.90
2019-06-08T01:16:15.116Z,1.07
2019-06-08T01:18:39.097Z,0.90
2019-06-08T01:20:50.276Z,0.93
2019-06-08T01:23:13.816Z,1.00
2019-06-08T01:25:32.946Z,1.20
2019-06-08T01:27:53.038Z,0.70
2019-06-08T01:30:13.641Z,0.97
2019-06-08T01:32:30.567Z,1.40
2019-06-08T01:34:43.044Z,1.13
2019-06-08T01:37:18.772Z,0.83
2019-06-08T01:39:37.130Z,0.80
2019-06-08T01:42:05.424Z,1.20
2019-06-08T01:44:28.181Z,0.90
2019-06-08T01:46:51.580Z,0.80
2019-06-08T01:49:26.206Z,1.00
2019-06-08T01:51:53.067Z,0.90
2019-06-08T01:54:20.264Z,1.20
2019-06-08T01:56:39.587Z,1.10
2019-06-08T01:59:07.404Z,1.20
2019-06-08T02:01:29.978Z,1.23
2019-06-08T02:03:46.080Z,0.90
2019-06-08T02:06:11.569Z,0.90
2019-06-08T02:08:26.585Z,1.17
2019-06-08T02:10:51.663Z,0.80
2019-06-08T02:13:12.297Z,0.90
2019-06-08T02:15:31.538Z,1.10
2019-06-08T02:17:46.944Z,0.70
2019-06-08T02:20:03.880Z,1.10
2019-06-08T02:22:20.466Z,1.17
2019-06-08T02:24:38.022Z,1.77
2019-06-08T02:29:12.902Z,0.80
2019-06-08T02:31:37.938Z,1.10
2019-06-08T02:34:12.845Z,1.00
2019-06-08T02:36:31.623Z,0.83
2019-06-08T02:38:51.172Z,1.20
2019-06-08T02:41:15.371Z,1.30
2019-06-08T02:43:35.798Z,1.10
2019-06-08T02:45:50.810Z,0.80
2019-06-08T02:48:06.503Z,1.00
2019-06-08T02:50:17.345Z,0.80
2019-06-08T02:52:43.037Z,0.90
2019-06-08T02:55:14.871Z,0.93
2019-06-08T02:57:33.297Z,0.83
2019-06-08T02:59:45.720Z,0.80
2019-06-08T03:02:02.411Z,0.80
2019-06-08T03:04:27.410Z,1.07
2019-06-08T03:06:42.388Z,1.10
2019-06-08T03:09:11.211Z,1.20
2019-06-08T03:11:39.171Z,0.97
2019-06-08T03:14:04.419Z,1.00
2019-06-08T03:16:18.375Z,0.90
2019-06-08T03:18:31.455Z,0.90
2019-06-08T03:20:40.053Z,1.00
2019-06-08T03:22:44.231Z,1.20
2019-06-08T03:24:48.189Z,1.00
2019-06-08T03:26:53.384Z,1.20
2019-06-08T03:32:11.983Z,0.97
2019-06-08T03:34:45.803Z,1.00
2019-06-08T03:37:05.521Z,0.97
2019-06-08T03:39:59.005Z,0.80
2019-06-08T03:42:43.260Z,0.80
2019-06-08T03:45:23.247Z,0.90
2019-06-08T03:47:37.122Z,1.10
2019-06-08T03:50:14.270Z,0.93
2019-06-08T03:52:44.153Z,1.00
2019-06-08T03:55:19.639Z,1.20
2019-06-08T03:57:48.705Z,1.00
2019-06-08T03:59:51.392Z,0.97
2019-06-08T04:01:55.334Z,1.50
2019-06-08T04:04:00.198Z,0.83
2019-06-08T04:06:04.291Z,1.00
2019-06-08T04:08:08.571Z,1.40
2019-06-08T04:10:12.705Z,1.00
2019-06-08T04:12:16.619Z,1.20
2019-06-08T04:16:21.997Z,1.03
2019-06-08T04:17:04.374Z,1.00
2019-06-08T04:19:19.021Z,1.83
2019-06-08T04:21:33.303Z,1.07
2019-06-08T04:26:42.794Z,1.50
2019-06-08T04:29:06.703Z,1.63
2019-06-08T04:31:21.521Z,1.50
2019-06-08T04:33:32.355Z,1.10
2019-06-08T04:35:47.812Z,0.90
2019-06-08T04:38:04.125Z,1.40
2019-06-08T04:40:13.578Z,0.90
2019-06-08T04:43:21.989Z,1.10
2019-06-08T04:45:27.252Z,1.73
2019-06-08T04:47:31.316Z,0.80
2019-06-08T04:49:35.318Z,1.33
2019-06-08T04:51:40.630Z,0.90
2019-06-08T04:53:47.209Z,1.87
2019-06-08T04:55:57.304Z,1.40
2019-06-08T04:57:57.421Z,1.47
2019-06-08T05:00:11.275Z,1.17
2019-06-08T05:02:07.221Z,1.60
2019-06-08T05:04:11.254Z,1.27
2019-06-08T05:06:15.383Z,2.00
2019-06-08T05:08:19.212Z,1.20
2019-06-08T05:10:23.693Z,1.13
2019-06-08T05:12:27.536Z,1.33
2019-06-08T05:14:34.491Z,1.43
2019-06-08T05:16:45.335Z,1.37
2019-06-08T05:18:52.270Z,1.30
2019-06-08T05:20:56.179Z,1.33
2019-06-08T05:23:00.288Z,1.50
2019-06-08T05:25:07.377Z,1.40
2019-06-08T05:27:14.243Z,1.97
2019-06-08T05:29:18.101Z,1.50
2019-06-08T05:31:45.756Z,1.30
2019-06-08T05:36:33.870Z,1.63
2019-06-08T05:39:10.782Z,1.10
2019-06-08T05:41:24.313Z,1.40
2019-06-08T05:43:49.929Z,1.40
2019-06-08T05:46:25.750Z,1.10
2019-06-08T05:48:41.929Z,1.27
2019-06-08T05:51:03.171Z,1.70
2019-06-08T05:52:58.942Z,1.10
2019-06-08T05:55:06.141Z,1.63
2019-06-08T05:57:10.187Z,1.03
2019-06-08T05:59:14.071Z,1.50
2019-06-08T06:01:18.139Z,1.00
2019-06-08T06:03:21.976Z,1.70
2019-06-08T06:05:26.132Z,1.63
2019-06-08T06:07:33.085Z,1.20
2019-06-08T06:09:45.037Z,1.27
2019-06-08T06:11:49.407Z,1.33
2019-06-08T06:13:53.362Z,1.10
2019-06-08T06:16:06.600Z,1.07
2019-06-08T06:18:10.487Z,0.90
2019-06-08T06:20:14.609Z,1.40
2019-06-08T06:22:18.910Z,1.20
2019-06-08T06:24:22.728Z,1.00
2019-06-08T06:26:26.992Z,1.27
2019-06-08T06:28:30.770Z,1.33
2019-06-08T06:30:58.588Z,1.37
2019-06-08T06:33:02.592Z,1.20
2019-06-08T06:35:07.097Z,1.07
2019-06-08T06:37:14.116Z,1.30
2019-06-08T06:39:17.992Z,1.30
2019-06-08T06:41:22.278Z,1.53
2019-06-08T06:43:32.791Z,1.30
2019-06-08T06:45:49.799Z,1.47
2019-06-08T06:48:09.293Z,1.17
2019-06-08T06:50:36.612Z,1.20
2019-06-08T06:52:58.736Z,1.17
2019-06-08T06:55:34.518Z,1.57
2019-06-08T06:57:55.424Z,1.20
2019-06-08T07:02:32.872Z,1.07
2019-06-08T07:04:37.086Z,1.30
2019-06-08T07:06:40.867Z,1.30
2019-06-08T07:08:44.687Z,1.50
2019-06-08T07:10:48.875Z,1.57
2019-06-08T07:12:52.882Z,1.40
2019-06-08T07:14:56.930Z,1.60
2019-06-08T07:17:00.730Z,2.23
2019-06-08T07:19:07.624Z,1.30
2019-06-08T07:21:11.682Z,1.50
2019-06-08T07:23:15.899Z,1.57
2019-06-08T07:25:20.028Z,1.33
2019-06-08T07:27:27.686Z,1.40
2019-06-08T07:29:31.527Z,1.33
2019-06-08T07:31:35.774Z,1.40
2019-06-08T07:33:44.147Z,1.53
2019-06-08T07:35:49.842Z,1.30
2019-06-08T07:37:59.882Z,2.00
2019-06-08T07:40:04.191Z,1.40
2019-06-08T07:42:08.120Z,1.97
2019-06-08T07:44:11.982Z,2.13
2019-06-08T07:46:17.544Z,1.40
2019-06-08T07:48:23.755Z,2.30
2019-06-08T07:50:27.983Z,1.63
2019-06-08T07:52:31.950Z,1.83
2019-06-08T07:54:35.888Z,2.17
2019-06-08T07:56:39.777Z,1.33
2019-06-08T07:58:47.062Z,2.20
2019-06-08T08:00:54.647Z,1.00
2019-06-08T08:03:02.228Z,1.70
2019-06-08T08:05:09.698Z,1.67
2019-06-08T08:07:14.000Z,1.60
2019-06-08T08:09:21.197Z,2.93
2019-06-08T08:11:25.235Z,1.40
2019-06-08T08:13:29.186Z,1.73
2019-06-08T08:15:33.193Z,1.70
2019-06-08T08:17:37.278Z,2.93
2019-06-08T08:19:41.528Z,2.43
2019-06-08T08:21:48.276Z,1.87
2019-06-08T08:23:51.753Z,1.50
2019-06-08T08:25:58.652Z,1.60
2019-06-08T08:28:03.477Z,1.30
2019-06-08T08:30:08.481Z,1.53
2019-06-08T08:32:12.401Z,1.07
2019-06-08T08:34:18.273Z,1.43
2019-06-08T08:36:22.362Z,1.50
2019-06-08T08:38:27.259Z,1.20
2019-06-08T08:40:31.331Z,1.30
2019-06-08T08:42:35.358Z,1.50
2019-06-08T08:44:39.215Z,1.53
2019-06-08T08:46:48.872Z,1.37
2019-06-08T08:48:54.217Z,3.77
2019-06-08T08:51:00.797Z,1.27
2019-06-08T08:53:04.066Z,1.50
2019-06-08T08:55:08.412Z,1.50
2019-06-08T08:57:12.340Z,1.47
2019-06-08T08:59:17.753Z,1.70
2019-06-08T09:01:21.952Z,1.10
2019-06-08T09:03:33.434Z,1.10
2019-06-08T09:05:34.771Z,1.43
2019-06-08T09:07:38.980Z,1.27
2019-06-08T09:09:42.947Z,2.07
2019-06-08T09:11:48.378Z,1.73
2019-06-08T09:13:53.471Z,1.30
2019-06-08T09:16:00.182Z,1.20
2019-06-08T09:18:08.984Z,1.30
2019-06-08T09:20:15.970Z,1.13
2019-06-08T09:22:19.507Z,1.50
2019-06-08T09:25:03.206Z,1.93
2019-06-08T09:27:17.767Z,2.10
2019-06-08T09:29:44.183Z,1.47
2019-06-08T09:31:56.550Z,1.70
2019-06-08T09:34:25.163Z,1.50
2019-06-08T09:37:08.591Z,1.30
2019-06-08T09:39:31.734Z,1.80
2019-06-08T09:42:00.442Z,1.40
2019-06-08T09:44:28.092Z,1.20
2019-06-08T09:46:38.538Z,1.23
2019-06-08T09:49:05.905Z,1.57
2019-06-08T09:51:09.262Z,1.43
2019-06-08T09:53:37.646Z,1.30
2019-06-08T09:56:02.344Z,1.77
2019-06-08T09:58:28.941Z,1.50
2019-06-08T10:00:45.610Z,1.63
2019-06-08T10:03:12.997Z,1.87
2019-06-08T10:05:44.645Z,1.60
2019-06-08T10:08:06.031Z,1.63
2019-06-08T10:10:29.711Z,1.73
2019-06-08T10:12:48.173Z,1.60
2019-06-08T10:15:08.041Z,1.40
2019-06-08T10:17:32.155Z,1.50
2019-06-08T10:20:04.556Z,1.27
2019-06-08T10:22:18.009Z,1.90
2019-06-08T10:24:38.762Z,1.67
2019-06-08T10:27:11.393Z,3.30
2019-06-08T10:29:22.704Z,1.90
2019-06-08T10:31:43.524Z,1.27
2019-06-08T10:34:11.349Z,1.60
2019-06-08T10:36:42.907Z,1.73
2019-06-08T10:38:51.570Z,1.30
2019-06-08T10:41:10.906Z,1.20
2019-06-08T10:43:11.380Z,2.03
2019-06-08T10:45:19.170Z,1.10
2019-06-08T10:47:29.489Z,1.50
2019-06-08T10:49:39.402Z,1.63
2019-06-08T10:51:48.758Z,1.67
2019-06-08T10:54:02.328Z,1.20
2019-06-08T10:56:05.607Z,1.40
2019-06-08T10:58:20.429Z,1.30
2019-06-08T11:00:31.377Z,1.30
2019-06-08T11:02:48.714Z,1.40
2019-06-08T11:04:58.863Z,1.60
2019-06-08T11:07:13.180Z,1.57
2019-06-08T11:09:15.082Z,1.37
2019-06-08T11:13:41.749Z,1.53
2019-06-08T11:15:52.685Z,0.93
2019-06-08T11:18:28.518Z,3.00
2019-06-08T11:20:40.661Z,2.53
2019-06-08T11:23:18.730Z,1.20
2019-06-08T11:25:38.304Z,1.10
2019-06-08T11:28:03.613Z,1.63
2019-06-08T11:30:30.622Z,1.30
2019-06-08T11:32:54.069Z,1.50
2019-06-08T11:35:10.635Z,1.70
2019-06-08T11:37:59.837Z,1.43
2019-06-08T11:40:23.257Z,1.70
2019-06-08T11:42:48.545Z,1.50
2019-06-08T11:45:11.031Z,1.20
2019-06-08T11:49:50.111Z,2.20
2019-06-08T11:52:11.903Z,1.30
2019-06-08T11:54:43.512Z,1.50
2019-06-08T11:57:28.298Z,1.80
2019-06-08T11:59:55.151Z,1.77
2019-06-08T12:02:31.034Z,1.70
2019-06-08T12:05:20.621Z,0.90
2019-06-08T12:08:04.385Z,1.10
2019-06-08T12:10:33.593Z,1.50
2019-06-08T12:13:27.922Z,1.43
2019-06-08T12:15:58.743Z,1.90
2019-06-08T12:18:40.362Z,1.30
2019-06-08T12:21:27.757Z,1.90
2019-06-08T12:23:50.400Z,1.57
2019-06-08T12:26:04.642Z,1.67
2019-06-08T12:28:41.157Z,1.63
2019-06-08T12:31:15.869Z,1.70
2019-06-08T12:33:39.364Z,1.80
2019-06-08T12:36:20.776Z,1.83
2019-06-08T12:38:42.034Z,1.83
2019-06-08T12:41:02.868Z,1.40
2019-06-08T12:43:40.888Z,1.50
2019-06-08T12:46:02.319Z,1.67
2019-06-08T12:48:14.652Z,1.30
2019-06-08T12:50:28.096Z,1.57
2019-06-08T12:52:58.527Z,1.03
2019-06-08T12:55:32.978Z,2.20
2019-06-08T12:57:52.969Z,1.93
2019-06-08T13:00:30.358Z,1.40
2019-06-08T13:03:01.497Z,1.47
2019-06-08T13:05:22.779Z,1.57
2019-06-08T13:10:32.890Z,2.00
2019-06-08T13:13:14.730Z,1.30
2019-06-08T13:15:38.965Z,1.87
2019-06-08T13:17:59.955Z,1.53
2019-06-08T13:20:42.123Z,1.00
2019-06-08T13:25:37.601Z,1.43
2019-06-08T13:27:37.865Z,1.37
2019-06-08T13:30:07.584Z,1.60
2019-06-08T13:32:28.671Z,1.60
2019-06-08T13:34:53.403Z,2.30
2019-06-08T13:37:08.473Z,1.17
2019-06-08T13:39:35.140Z,1.20
2019-06-08T13:41:52.072Z,3.20
2019-06-08T13:44:08.233Z,1.23
2019-06-08T13:46:23.698Z,1.93
2019-06-08T13:48:34.747Z,1.30
2019-06-08T13:50:52.465Z,0.93
2019-06-08T13:53:31.820Z,2.23
2019-06-08T13:55:53.236Z,1.87
2019-06-08T13:58:15.133Z,1.40
2019-06-08T14:00:38.810Z,1.47
2019-06-08T14:03:21.712Z,1.10
2019-06-08T14:05:50.365Z,1.10
2019-06-08T14:08:25.495Z,1.17
2019-06-08T14:13:53.572Z,1.27
2019-06-08T14:16:15.934Z,1.60
2019-06-08T14:18:35.691Z,1.47
2019-06-08T14:21:03.944Z,1.23
2019-06-08T14:23:26.871Z,1.20
2019-06-08T14:25:56.675Z,1.37
2019-06-08T14:28:08.327Z,1.53
2019-06-08T14:30:32.901Z,2.00
2019-06-08T14:32:59.656Z,1.53
2019-06-08T14:35:40.717Z,1.67
2019-06-08T14:38:09.441Z,1.40
2019-06-08T14:40:23.750Z,1.23
2019-06-08T14:43:10.646Z,1.17
2019-06-08T14:45:30.976Z,1.60
2019-06-08T14:47:47.585Z,1.00
2019-06-08T14:50:08.120Z,1.17
2019-06-08T14:52:47.940Z,1.47
2019-06-08T14:55:04.667Z,1.80
2019-06-08T14:57:23.372Z,1.30
2019-06-08T14:59:50.101Z,1.00
2019-06-08T15:02:11.329Z,1.50
2019-06-08T15:04:39.849Z,1.00
2019-06-08T15:07:00.680Z,1.23
2019-06-08T15:10:11.038Z,1.47
2019-06-08T15:14:38.433Z,1.40
2019-06-08T15:17:04.590Z,1.10
2019-06-08T15:19:18.486Z,1.40
2019-06-08T15:21:23.881Z,1.33
2019-06-08T15:23:33.561Z,1.20
2019-06-08T15:25:46.380Z,1.23
2019-06-08T15:28:01.399Z,1.20
2019-06-08T15:30:13.849Z,1.80
2019-06-08T15:32:18.097Z,1.67
2019-06-08T15:34:23.215Z,1.33
2019-06-08T15:36:32.869Z,1.30
2019-06-08T15:39:07.797Z,1.60
2019-06-08T15:41:34.445Z,1.80
2019-06-08T15:44:11.256Z,1.37
2019-06-08T15:46:15.416Z,1.37
2019-06-08T15:48:38.429Z,1.10
2019-06-08T15:51:28.863Z,0.90
2019-06-08T15:53:40.381Z,1.57
2019-06-08T15:55:53.991Z,1.27
2019-06-08T15:58:02.650Z,1.00
2019-06-08T16:00:18.861Z,1.13
2019-06-08T16:02:32.180Z,1.60
2019-06-08T16:04:36.418Z,1.30
2019-06-08T16:06:40.713Z,1.53
2019-06-08T16:09:07.504Z,1.30
2019-06-08T16:11:20.389Z,1.40
2019-06-08T16:13:26.764Z,1.40
2019-06-08T16:15:37.438Z,1.30
2019-06-08T16:17:44.172Z,1.33
2019-06-08T16:19:53.213Z,1.40
2019-06-08T16:22:02.404Z,1.60
2019-06-08T16:24:12.421Z,0.93
2019-06-08T16:26:22.869Z,0.97
2019-06-08T16:28:31.981Z,1.10
2019-06-08T16:30:46.545Z,1.00
2019-06-08T16:32:54.529Z,0.90
2019-06-08T16:35:16.556Z,0.90
2019-06-08T16:37:20.477Z,1.20
2019-06-08T16:39:25.022Z,1.10
2019-06-08T16:41:40.137Z,1.50
2019-06-08T16:43:59.374Z,1.00
2019-06-08T16:46:06.518Z,1.20
2019-06-08T16:48:12.172Z,1.10
2019-06-08T16:52:36.697Z,1.17
2019-06-08T16:54:54.880Z,1.23
2019-06-08T16:57:10.785Z,0.80
2019-06-08T16:59:15.550Z,1.10
2019-06-08T17:01:28.310Z,0.90
2019-06-08T17:03:32.923Z,1.20
2019-06-08T17:05:41.515Z,0.67
2019-06-08T17:07:51.664Z,1.00
2019-06-08T17:09:58.954Z,1.00
2019-06-08T17:12:18.985Z,1.20
2019-06-08T17:14:25.352Z,1.03
2019-06-08T17:16:34.454Z,0.80
2019-06-08T17:18:47.880Z,0.93
2019-06-08T17:20:53.144Z,1.20
2019-06-08T17:23:05.509Z,1.10
2019-06-08T17:25:09.979Z,1.03
2019-06-08T17:27:26.304Z,1.00
2019-06-08T17:29:19.964Z,0.87
2019-06-08T17:31:23.888Z,0.80
2019-06-08T17:33:33.111Z,0.80
2019-06-08T17:35:44.399Z,0.73
2019-06-08T17:37:54.239Z,0.80
2019-06-08T17:40:16.517Z,0.80
2019-06-08T17:42:32.874Z,1.50
2019-06-08T17:44:43.621Z,1.13
2019-06-08T17:46:58.273Z,0.70
2019-06-08T17:49:07.536Z,0.70
2019-06-08T17:51:17.296Z,0.63
2019-06-08T17:53:21.287Z,0.70
2019-06-08T17:55:27.066Z,0.70
2019-06-08T17:57:52.813Z,0.70
2019-06-08T17:59:48.700Z,0.80
2019-06-08T18:02:00.009Z,0.60
2019-06-08T18:04:14.692Z,1.10
2019-06-08T18:06:18.619Z,0.73
2019-06-08T18:08:28.201Z,0.80
2019-06-08T18:10:33.769Z,1.20
2019-06-08T18:12:43.475Z,0.80
2019-06-08T18:14:47.957Z,0.90
2019-06-08T18:16:52.109Z,1.00
2019-06-08T18:18:57.730Z,1.10
2019-06-08T18:21:02.157Z,1.00
2019-06-08T18:23:08.159Z,1.00
2019-06-08T18:25:13.111Z,0.90
2019-06-08T18:27:21.654Z,0.93
2019-06-08T18:29:38.880Z,1.00
2019-06-08T18:31:46.119Z,0.73
2019-06-08T18:33:58.262Z,0.93
2019-06-08T18:36:07.669Z,0.67
2019-06-08T18:38:21.643Z,0.60
2019-06-08T18:40:34.915Z,0.83
2019-06-08T18:42:39.567Z,0.80
2019-06-08T18:44:42.975Z,0.83
2019-06-08T18:46:48.312Z,0.70
2019-06-08T18:48:52.285Z,0.70
2019-06-08T18:50:57.221Z,0.80
2019-06-08T18:53:01.455Z,0.80
2019-06-08T18:55:08.174Z,0.87
2019-06-08T18:57:11.400Z,1.00
2019-06-08T18:59:19.468Z,0.90
2019-06-08T19:01:23.909Z,1.97
2019-06-08T19:03:40.308Z,0.93
2019-06-08T19:05:45.654Z,0.90
2019-06-08T19:07:51.582Z,1.17
2019-06-08T19:09:57.850Z,1.40
2019-06-08T19:12:05.375Z,1.87
2019-06-08T19:14:20.588Z,1.67
2019-06-08T19:16:23.513Z,1.87
2019-06-08T19:18:30.575Z,1.80
2019-06-08T19:20:34.451Z,1.43
2019-06-08T19:22:43.799Z,1.50
2019-06-08T19:24:49.461Z,1.57
2019-06-08T19:26:51.929Z,1.60
2019-06-08T19:28:57.815Z,1.80
2019-06-08T19:31:01.718Z,1.50
2019-06-08T19:33:07.329Z,1.93
2019-06-08T19:35:11.179Z,1.70
2019-06-08T19:37:17.134Z,1.50
2019-06-08T19:39:20.569Z,1.90
2019-06-08T19:41:24.544Z,1.80
2019-06-08T19:43:28.482Z,2.37
2019-06-08T19:45:32.332Z,2.00
2019-06-08T19:47:36.134Z,1.80
2019-06-08T19:49:41.323Z,1.93
2019-06-08T19:51:47.938Z,1.53
2019-06-08T19:53:52.935Z,1.97
2019-06-08T19:55:57.188Z,2.27
2019-06-08T19:58:01.115Z,2.30
2019-06-08T20:00:07.427Z,2.27
2019-06-08T20:02:12.131Z,2.20
2019-06-08T20:04:17.803Z,2.17
2019-06-08T20:06:21.552Z,2.20
2019-06-08T20:08:25.474Z,2.27
2019-06-08T20:10:29.333Z,2.20
2019-06-08T20:12:33.210Z,2.63
2019-06-08T20:14:37.525Z,2.23
2019-06-08T20:16:42.618Z,3.03
2019-06-08T20:18:48.608Z,3.23
2019-06-08T20:20:54.344Z,2.50
2019-06-08T20:22:58.670Z,1.90
2019-06-08T20:25:02.641Z,2.40
2019-06-08T20:27:07.713Z,2.27
2019-06-08T20:29:16.282Z,2.20
2019-06-08T20:31:18.224Z,2.37
2019-06-08T20:33:27.250Z,3.17
2019-06-08T20:35:28.166Z,2.40
2019-06-08T20:37:32.363Z,3.23
2019-06-08T20:39:38.222Z,2.20
2019-06-08T20:41:41.868Z,3.33
2019-06-08T20:43:49.895Z,2.57
2019-06-08T20:45:52.161Z,2.30
2019-06-08T20:47:58.474Z,3.03
2019-06-08T20:50:02.735Z,2.87
2019-06-08T20:52:08.594Z,2.80
2019-06-08T20:54:12.243Z,2.70
2019-06-08T20:56:17.377Z,2.73
2019-06-08T20:58:21.281Z,2.90
2019-06-08T21:00:25.096Z,3.60
2019-06-08T21:02:29.203Z,3.97
2019-06-08T21:04:33.007Z,3.50
2019-06-08T21:06:38.568Z,3.30
2019-06-08T21:08:42.612Z,3.73
2019-06-08T21:10:49.222Z,3.50
2019-06-08T21:12:52.983Z,3.33
2019-06-08T21:14:58.084Z,3.17
2019-06-08T21:17:02.081Z,3.27
2019-06-08T21:19:13.089Z,3.20
2019-06-08T21:21:38.872Z,3.43
2019-06-08T21:24:00.891Z,3.63
2019-06-08T21:28:56.636Z,3.00
2019-06-08T21:31:22.987Z,3.13
2019-06-08T21:33:49.110Z,2.83
2019-06-08T21:36:14.922Z,3.30
2019-06-08T21:38:28.676Z,3.70
2019-06-08T21:41:02.928Z,2.70
2019-06-08T21:43:27.883Z,3.80
2019-06-08T21:45:56.320Z,3.00
2019-06-08T21:48:19.348Z,3.73
2019-06-08T21:50:53.333Z,3.80
2019-06-08T21:53:11.215Z,3.80
2019-06-08T21:55:49.461Z,3.50
2019-06-08T21:57:52.694Z,2.97
2019-06-08T22:00:35.941Z,2.70
2019-06-08T22:02:37.604Z,3.40
2019-06-08T22:04:53.363Z,3.23
2019-06-08T22:06:59.710Z,2.90
2019-06-08T22:09:25.149Z,3.57
2019-06-08T22:12:00.551Z,2.87
2019-06-08T22:14:15.089Z,2.73
2019-06-08T22:16:39.672Z,2.80
2019-06-08T22:19:07.564Z,2.83
2019-06-08T22:21:19.085Z,3.33
2019-06-08T22:23:40.948Z,2.03
2019-06-08T22:26:08.357Z,2.70
2019-06-08T22:28:48.229Z,2.93
2019-06-08T22:30:44.051Z,2.70
2019-06-08T22:33:10.143Z,2.67
2019-06-08T22:35:37.087Z,2.80
2019-06-08T22:37:42.724Z,2.40
2019-06-08T22:40:09.802Z,2.83
2019-06-08T22:42:25.085Z,2.90
2019-06-08T22:47:24.458Z,2.60
2019-06-08T22:49:53.177Z,2.80
2019-06-08T22:52:09.418Z,3.17
2019-06-08T22:54:38.351Z,2.30
2019-06-08T22:56:54.204Z,2.60
2019-06-08T22:59:17.352Z,2.13
2019-06-08T23:01:40.313Z,2.50
2019-06-08T23:04:15.168Z,1.93
2019-06-08T23:06:34.533Z,2.80
2019-06-08T23:08:48.632Z,2.83
2019-06-08T23:11:12.388Z,2.53
2019-06-08T23:13:37.495Z,3.20
2019-06-08T23:15:50.106Z,2.37
2019-06-08T23:18:29.765Z,2.93
2019-06-08T23:20:52.451Z,3.03
2019-06-08T23:23:13.199Z,2.70
2019-06-08T23:25:37.314Z,2.90
2019-06-08T23:28:10.408Z,2.73
2019-06-08T23:30:41.146Z,2.67
2019-06-08T23:33:22.129Z,2.70
2019-06-08T23:36:33.605Z,3.10
2019-06-08T23:38:27.908Z,3.07
2019-06-08T23:40:53.781Z,2.83
2019-06-08T23:43:23.886Z,3.37
2019-06-08T23:45:50.642Z,2.80
2019-06-08T23:48:17.333Z,3.37
2019-06-08T23:50:49.736Z,2.93
2019-06-08T23:53:07.781Z,2.67
2019-06-08T23:55:37.879Z,3.57
2019-06-08T23:57:55.599Z,2.83
